Time;durP1;ratioP1;P1;durP2;ratioP2;P2;SDS_P1;SDS_P2;PMS_P1;PMS_P2;Temp;Humidity;BMP_temperature;BMP_pressure;BME280_temperature;BME280_humidity;BME280_pressure;Samples;Min_cycle;Max_cycle;Signal;HPM_P1;HPM_P2
2021/07/18 00:02:59;;;;;;;;;;;;;;;;;;;;;
2021/07/18 00:30:07;;;;;;;;;;;;;;;;;;;;;
2021/07/18 01:15:00;;;;;;;6.10;3.45;;;;;;;22.71;44.17;92704.44;6119011;23;20565;-96
2021/07/18 01:17:26;;;;;;;6.95;3.95;;;;;;;23.57;44.43;92840.41;6037307;23;20023;-96
2021/07/18 02:32:43;;;;;;;5.40;4.72;;;;;;;21.08;53.27;92743.94;6065072;23;20159;-94
2021/07/18 04:03:23;;;;;;;5.30;3.10;;;;;;;26.60;38.20;92848.53;6079035;23;20412;-96
2021/07/18 04:22:04;;;;;;;3.35;2.83;;;;;;;29.74;34.87;93040.09;6142201;23;20064;-96
2021/07/18 05:41:37;;;;;;;9.43;2.95;;;;;;;33.00;30.40;92995.06;6095351;22;20033;-95
2021/07/18 05:56:44;;;;;;;7.10;3.72;;;;;;;30.27;34.08;92873.22;6171949;22;20031;-94
2021/07/18 06:44:36;;;;;;;;;;;;;;;;;;;;;
2021/07/18 07:36:00;;;;;;;15.73;7.18;;;;;;;28.80;41.76;93040.69;6177742;22;20050;-91
2021/07/18 07:38:29;;;;;;;13.20;6.63;;;;;;;28.32;42.19;92972.59;6192398;22;20299;-91
2021/07/18 07:40:55;;;;;;;7.82;6.50;;;;;;;28.13;41.83;92927.19;6151275;22;20437;-91
2021/07/18 07:43:20;;;;;;;11.20;6.70;;;;;;;28.56;41.74;93030.31;6142592;23;20432;-91
2021/07/18 07:45:46;;;;;;;16.15;6.97;;;;;;;27.17;42.35;92803.44;6141504;22;20044;-91
2021/07/18 07:48:23;;;;;;;14.18;7.68;;;;;;;27.37;41.58;92825.88;6116943;23;20013;-92
2021/07/18 07:50:52;;;;;;;13.95;7.53;;;;;;;27.75;42.42;92897.69;6114920;23;20491;-91
2021/07/18 07:53:21;;;;;;;11.70;7.75;;;;;;;28.24;43.11;92955.69;6116518;22;20011;-91
2021/07/18 07:55:46;;;;;;;13.80;7.22;;;;;;;27.42;41.89;92809.13;6187469;23;20018;-91
2021/07/18 07:58:12;;;;;;;11.85;6.95;;;;;;;28.89;41.61;93047.50;6136648;22;20486;-92
2021/07/18 08:00:44;;;;;;;11.20;6.78;;;;;;;28.51;42.62;92963.63;6142604;22;20080;-91
2021/07/18 08:03:10;;;;;;;11.55;6.97;;;;;;;28.79;42.22;93014.69;6113702;23;20385;-90
2021/07/18 08:05:37;;;;;;;10.63;6.57;;;;;;;27.49;42.09;92825.31;6134156;22;20018;-92
2021/07/18 08:08:03;;;;;;;8.65;6.90;;;;;;;27.44;42.04;92806.78;6130940;22;20002;-92
2021/07/18 08:10:28;;;;;;;10.25;7.10;;;;;;;28.80;41.82;92990.97;6229458;22;20005;-91
2021/07/18 08:12:54;;;;;;;7.82;6.45;;;;;;;27.76;41.41;92822.44;6110537;23;20024;-92
2021/07/18 08:15:23;;;;;;;12.15;6.40;;;;;;;27.62;41.65;92787.44;6141235;22;20570;-91
2021/07/18 08:17:50;;;;;;;13.82;6.63;;;;;;;29.04;41.64;93016.06;6111877;23;20031;-91
2021/07/18 08:20:19;;;;;;;10.85;6.13;;;;;;;27.91;41.89;92824.41;6111555;23;20508;-91
2021/07/18 08:22:46;;;;;;;8.65;6.65;;;;;;;29.33;41.12;93016.97;6137534;23;20006;-90
2021/07/18 08:25:20;;;;;;;10.85;5.50;;;;;;;29.30;40.94;93006.91;6111200;23;20031;-91
2021/07/18 08:27:46;;;;;;;10.32;6.40;;;;;;;27.72;41.09;92768.22;6107324;23;20464;-92
2021/07/18 08:30:18;;;;;;;16.40;6.53;;;;;;;28.67;40.95;92890.28;6137932;22;20086;-90
2021/07/18 08:32:44;;;;;;;9.95;6.20;;;;;;;28.92;40.69;92927.00;6112889;23;20044;-91
2021/07/18 08:35:11;;;;;;;12.48;6.13;;;;;;;29.49;40.53;93005.31;6113719;22;20022;-91
2021/07/18 08:37:40;;;;;;;14.38;6.57;;;;;;;28.20;40.23;92777.66;6141090;23;20092;-91
2021/07/18 08:40:08;;;;;;;9.63;5.70;;;;;;;28.93;40.70;92868.72;6139926;22;20503;-92
2021/07/18 08:42:39;;;;;;;6.63;5.90;;;;;;;28.50;40.06;92792.81;6115374;23;20100;-91
2021/07/18 08:45:11;;;;;;;6.95;4.85;;;;;;;29.41;39.53;92914.16;6162847;22;20053;-90
2021/07/18 13:56:56;;;;;;;9.52;5.55;;;;;;;27.60;44.60;92891.00;5028768;27;20501;-74
2021/07/18 13:59:22;;;;;;;23.83;5.45;;;;;;;28.07;43.73;92890.81;4995537;28;20030;-74
2021/07/18 14:01:47;;;;;;;12.57;5.38;;;;;;;28.49;43.33;92889.91;4995418;28;20401;-71
2021/07/18 14:04:13;;;;;;;9.85;5.50;;;;;;;28.76;42.29;92878.81;4992711;28;20034;-72
2021/07/18 14:06:38;;;;;;;7.20;5.18;;;;;;;29.09;42.20;92876.84;4995741;28;20124;-72
2021/07/18 14:09:05;;;;;;;10.73;5.72;;;;;;;29.41;42.16;92860.50;5013423;28;20068;-73
2021/07/18 14:11:31;;;;;;;6.28;4.90;;;;;;;29.67;40.49;92864.03;5012971;28;20101;-72
2021/07/18 14:13:57;;;;;;;11.32;5.03;;;;;;;29.84;41.88;92851.91;5014460;28;20156;-73
2021/07/18 14:18:17;;;;;;;6.82;5.00;;;;;;;30.16;40.10;92853.69;5090862;27;21074;-72
2021/07/18 14:20:43;;;;;;;10.35;5.43;;;;;;;30.30;39.56;92869.63;5043398;28;20082;-73
2021/07/18 14:23:10;;;;;;;7.50;5.43;;;;;;;30.53;40.50;92876.75;5078134;28;20043;-74
2021/07/18 14:25:36;;;;;;;11.00;5.13;;;;;;;30.60;39.61;92868.34;5079381;28;20032;-73
2021/07/18 14:28:04;;;;;;;9.50;5.43;;;;;;;30.74;39.45;92869.88;5077845;28;20119;-74
2021/07/18 14:30:31;;;;;;;10.52;6.07;;;;;;;30.85;39.71;92870.28;5079731;28;20560;-74
2021/07/18 14:32:58;;;;;;;17.33;5.90;;;;;;;30.89;40.95;92865.47;5077195;28;20913;-73
2021/07/18 14:35:25;;;;;;;12.18;6.60;;;;;;;31.05;41.39;92879.00;5083365;28;20020;-73
2021/07/18 14:37:51;;;;;;;9.88;5.60;;;;;;;31.09;43.27;92871.47;5078923;28;20054;-74
2021/07/18 14:40:18;;;;;;;6.40;5.30;;;;;;;31.08;43.44;92878.16;5081128;28;20048;-73
2021/07/18 14:42:43;;;;;;;11.13;5.60;;;;;;;31.07;46.58;92875.84;5081515;28;20043;-73
2021/07/18 14:45:11;;;;;;;10.15;5.22;;;;;;;30.87;46.35;92874.13;5080435;28;20036;-74
2021/07/18 14:47:38;;;;;;;8.95;5.88;;;;;;;30.64;46.70;92866.28;5082565;28;20036;-74
2021/07/18 14:50:04;;;;;;;13.48;6.55;;;;;;;30.36;46.56;92861.66;5080068;28;20032;-73
2021/07/18 14:52:30;;;;;;;10.10;6.03;;;;;;;30.13;48.09;92855.34;5081285;28;20538;-73
2021/07/18 14:54:55;;;;;;;7.43;5.40;;;;;;;29.99;49.07;92874.84;5080953;28;20635;-74
2021/07/18 14:57:21;;;;;;;8.68;5.80;;;;;;;29.89;49.48;92880.59;5077997;28;20044;-73
2021/07/18 14:59:47;;;;;;;11.02;6.80;;;;;;;29.85;49.38;92877.94;5079842;28;20145;-73
2021/07/18 15:02:12;;;;;;;7.78;5.30;;;;;;;29.80;47.77;92880.44;5080451;28;20036;-73
2021/07/18 15:04:39;;;;;;;9.20;5.88;;;;;;;29.75;49.49;92883.69;5076864;28;20059;-73
2021/07/18 15:07:04;;;;;;;12.02;6.20;;;;;;;29.81;49.63;92884.69;5081917;28;20032;-73
2021/07/18 15:09:30;;;;;;;10.65;7.10;;;;;;;29.82;49.92;92902.53;5079570;28;20086;-73
2021/07/18 15:11:55;;;;;;;6.68;6.00;;;;;;;29.86;49.98;92905.94;5079137;28;20027;-74
2021/07/18 15:14:22;;;;;;;10.52;6.50;;;;;;;29.77;49.63;92867.66;5077709;28;20449;-73
2021/07/18 15:16:48;;;;;;;9.43;6.50;;;;;;;29.35;51.75;92870.38;5082640;28;20040;-74
2021/07/18 15:19:13;;;;;;;14.55;7.28;;;;;;;29.24;52.77;92861.69;5082172;28;20642;-74
2021/07/18 15:21:39;;;;;;;9.02;7.05;;;;;;;29.26;55.95;92881.06;5074079;28;20036;-74
2021/07/18 15:24:04;;;;;;;15.23;8.15;;;;;;;29.21;57.15;92884.31;5081489;28;20159;-72
2021/07/18 15:26:30;;;;;;;8.88;7.93;;;;;;;29.01;55.02;92872.78;5085453;28;20024;-74
2021/07/18 15:28:55;;;;;;;10.05;7.90;;;;;;;29.02;52.91;92861.47;5071380;28;20044;-73
2021/07/18 15:31:20;;;;;;;14.50;9.10;;;;;;;28.89;52.42;92844.31;5062715;28;20902;-72
2021/07/18 15:33:46;;;;;;;8.85;7.28;;;;;;;28.95;51.04;92839.13;5065853;28;20040;-74
2021/07/18 15:36:11;;;;;;;13.20;9.73;;;;;;;28.85;54.57;92814.50;5067548;28;20088;-73
2021/07/18 15:38:38;;;;;;;9.30;7.95;;;;;;;28.95;52.14;92818.13;5067369;28;20463;-73
2021/07/18 15:41:04;;;;;;;12.35;8.98;;;;;;;29.16;54.53;92827.69;5067731;28;20508;-73
2021/07/18 15:43:29;;;;;;;17.00;8.65;;;;;;;29.26;51.00;92829.38;5067037;28;20040;-74
2021/07/18 15:45:54;;;;;;;13.13;8.73;;;;;;;29.27;51.23;92823.47;5065023;28;20036;-73
2021/07/18 15:48:20;;;;;;;12.57;9.15;;;;;;;29.24;53.76;92801.81;5064411;28;20514;-73
2021/07/18 15:50:46;;;;;;;15.77;10.05;;;;;;;29.39;52.60;92813.09;5054611;28;20042;-73
2021/07/18 15:53:12;;;;;;;35.35;28.95;;;;;;;29.45;50.78;92822.28;5065989;28;20031;-73
2021/07/18 15:55:37;;;;;;;16.42;10.43;;;;;;;29.63;49.81;92827.97;5061640;28;20041;-73
2021/07/18 15:58:03;;;;;;;12.45;8.27;;;;;;;29.81;50.01;92830.22;5060097;28;20507;-73
2021/07/18 16:00:28;;;;;;;17.27;11.13;;;;;;;29.89;51.78;92835.06;5061957;28;20040;-73
2021/07/18 16:02:54;;;;;;;12.95;9.48;;;;;;;30.01;53.08;92838.97;5063945;28;20036;-73
2021/07/18 16:05:21;;;;;;;13.07;10.02;;;;;;;30.21;54.83;92850.44;5063411;28;20386;-73
2021/07/18 16:07:47;;;;;;;36.33;14.73;;;;;;;30.06;53.23;92852.06;5066608;28;20111;-73
2021/07/18 16:10:14;;;;;;;17.75;10.68;;;;;;;29.93;53.11;92832.97;5063664;28;20578;-73
2021/07/18 16:12:40;;;;;;;10.32;9.07;;;;;;;30.13;51.54;92849.91;5065359;28;20036;-73
2021/07/18 16:15:07;;;;;;;14.55;8.93;;;;;;;30.24;51.75;92873.34;5064134;28;20051;-73
2021/07/18 16:17:33;;;;;;;14.05;9.35;;;;;;;30.22;51.20;92860.16;5060541;28;20079;-74
2021/07/18 16:19:58;;;;;;;14.68;8.25;;;;;;;30.34;51.04;92875.75;5062328;28;20123;-74
2021/07/18 16:22:25;;;;;;;15.52;9.68;;;;;;;30.08;51.61;92885.09;5063155;28;20140;-73
2021/07/18 16:24:51;;;;;;;11.48;9.20;;;;;;;30.08;50.20;92880.41;5063248;28;20135;-74
2021/07/18 16:27:16;;;;;;;15.35;10.20;;;;;;;30.11;51.55;92900.56;5064859;28;20117;-73
2021/07/18 16:29:42;;;;;;;11.75;9.48;;;;;;;30.17;50.10;92901.56;5061053;28;20017;-72
2021/07/18 16:32:07;;;;;;;9.75;8.75;;;;;;;30.03;49.45;92888.34;5062835;28;20097;-73
2021/07/18 16:34:33;;;;;;;12.32;9.38;;;;;;;30.20;49.18;92897.22;5062440;28;20131;-74
2021/07/18 16:36:58;;;;;;;11.05;8.55;;;;;;;30.22;51.17;92901.03;5065324;28;20041;-73
2021/07/18 16:39:24;;;;;;;30.90;26.30;;;;;;;30.43;50.92;92930.38;5070500;28;20040;-74
2021/07/18 16:41:51;;;;;;;155.80;119.30;;;;;;;30.58;50.27;92938.16;5065737;28;20055;-73
2021/07/18 16:44:16;;;;;;;100.78;76.35;;;;;;;30.62;48.79;92936.09;5064111;28;20111;-75
2021/07/18 16:46:42;;;;;;;31.13;18.98;;;;;;;30.63;47.86;92924.00;5064967;28;20028;-74
2021/07/18 16:49:07;;;;;;;40.63;22.65;;;;;;;30.69;48.00;92941.34;5063804;28;20070;-74
2021/07/18 16:51:32;;;;;;;21.88;14.18;;;;;;;30.71;47.79;92939.69;5066297;28;20067;-73
2021/07/18 16:53:58;;;;;;;19.73;11.10;;;;;;;30.53;48.52;92958.56;5063094;28;20032;-74
2021/07/18 16:56:24;;;;;;;17.17;8.45;;;;;;;30.22;46.86;92966.44;5065344;28;20400;-74
2021/07/18 16:58:49;;;;;;;20.10;8.82;;;;;;;30.07;46.95;92965.28;5065664;28;20992;-74
2021/07/18 17:01:15;;;;;;;26.33;8.60;;;;;;;29.79;47.50;92977.69;5063614;28;20464;-76
2021/07/18 17:03:41;;;;;;;14.60;8.20;;;;;;;29.31;49.66;92977.78;5067251;28;20040;-73
2021/07/18 17:06:08;;;;;;;11.85;6.88;;;;;;;28.91;49.43;92979.88;5066398;28;20036;-74
2021/07/18 17:08:34;;;;;;;10.02;8.27;;;;;;;28.83;49.72;93001.03;5065338;28;20478;-73
2021/07/18 17:10:59;;;;;;;9.82;6.78;;;;;;;28.77;50.29;93008.16;5067654;28;20040;-73
2021/07/18 17:13:25;;;;;;;14.40;7.43;;;;;;;28.48;50.55;92991.66;5065899;28;20105;-73
2021/07/18 17:15:50;;;;;;;9.45;8.15;;;;;;;28.32;50.94;92986.94;5067497;28;20040;-72
2021/07/18 17:18:16;;;;;;;7.95;7.10;;;;;;;28.20;50.69;92978.66;5066235;28;20140;-73
2021/07/18 17:20:41;;;;;;;7.97;7.18;;;;;;;28.13;50.66;92989.66;5066490;28;20521;-73
2021/07/18 17:23:07;;;;;;;9.77;7.88;;;;;;;28.11;50.45;93011.00;5066277;28;20040;-72
2021/07/18 17:25:33;;;;;;;10.57;7.25;;;;;;;28.18;50.17;93027.22;5064915;28;20557;-73
2021/07/18 17:28:00;;;;;;;15.73;7.18;;;;;;;28.13;49.98;93014.13;5066436;28;20111;-72
2021/07/18 17:30:26;;;;;;;10.73;7.05;;;;;;;27.78;50.39;93005.41;5059931;28;20150;-73
2021/07/18 17:32:52;;;;;;;10.48;7.07;;;;;;;27.86;50.90;93009.53;5063967;28;20110;-73
2021/07/18 17:35:18;;;;;;;9.13;6.97;;;;;;;27.87;50.12;92999.44;5063498;28;20024;-73
2021/07/18 17:37:43;;;;;;;10.57;6.53;;;;;;;27.87;49.71;93005.63;5061606;28;20131;-73
2021/07/18 17:40:10;;;;;;;8.40;6.00;;;;;;;27.83;50.04;92999.50;5062616;28;20060;-73
2021/07/18 17:42:35;;;;;;;9.13;6.85;;;;;;;27.87;49.91;92992.06;5062862;28;20035;-73
2021/07/18 17:45:00;;;;;;;13.20;8.15;;;;;;;27.99;50.16;93015.91;5066425;28;20028;-73
2021/07/18 17:47:26;;;;;;;7.43;6.43;;;;;;;28.11;49.41;93008.28;5063602;28;20020;-74
2021/07/18 17:49:52;;;;;;;17.85;8.75;;;;;;;28.26;49.25;93020.44;5066017;28;20093;-73
2021/07/18 17:52:18;;;;;;;8.60;7.05;;;;;;;28.44;49.82;93023.59;5063604;28;20029;-73
2021/07/18 17:54:43;;;;;;;11.15;6.53;;;;;;;28.01;49.75;92989.06;5065856;28;20055;-72
2021/07/18 17:57:09;;;;;;;9.75;6.65;;;;;;;27.75;51.05;93000.06;5065654;28;20036;-73
2021/07/18 17:59:34;;;;;;;10.48;6.78;;;;;;;27.33;51.73;93002.28;5064751;28;20407;-73
2021/07/18 18:02:00;;;;;;;14.75;7.32;;;;;;;27.26;51.99;93007.84;5062449;28;20036;-72
2021/07/18 18:04:25;;;;;;;9.23;6.68;;;;;;;27.51;50.78;93008.22;5064911;28;20051;-72
2021/07/18 18:06:51;;;;;;;17.88;7.30;;;;;;;27.73;50.33;93035.75;5062620;28;20581;-73
2021/07/18 18:09:17;;;;;;;8.75;6.97;;;;;;;27.87;49.92;93053.75;5065444;28;20048;-73
2021/07/18 18:11:43;;;;;;;12.40;6.95;;;;;;;27.86;49.99;93060.34;5064097;28;20024;-73
2021/07/18 18:14:10;;;;;;;11.25;6.00;;;;;;;27.68;50.17;93060.66;5065576;28;20043;-73
2021/07/18 18:16:36;;;;;;;10.60;6.55;;;;;;;27.44;50.49;93051.72;5061675;28;20063;-72
2021/07/18 18:19:05;;;;;;;12.82;6.93;;;;;;;27.61;50.31;93085.22;5067136;28;20032;-73
2021/07/18 18:21:40;;;;;;;10.82;7.05;;;;;;;27.73;50.29;93084.63;5057607;28;20032;-73
2021/07/18 18:24:08;;;;;;;9.05;6.72;;;;;;;27.77;50.00;93088.03;5064798;28;20384;-74
2021/07/18 18:26:38;;;;;;;15.48;6.43;;;;;;;27.84;49.66;93085.22;5062709;28;20394;-73
2021/07/18 18:29:04;;;;;;;9.77;6.65;;;;;;;27.93;49.51;93095.53;5063785;28;20661;-73
2021/07/18 18:31:30;;;;;;;10.05;7.25;;;;;;;27.95;49.27;93099.34;5068830;28;20044;-73
2021/07/18 18:33:56;;;;;;;10.10;6.28;;;;;;;28.13;49.97;93090.16;5059949;28;20036;-73
2021/07/18 18:36:22;;;;;;;23.80;8.07;;;;;;;28.30;48.91;93108.06;5061769;28;20097;-72
2021/07/18 18:38:47;;;;;;;12.50;6.13;;;;;;;28.38;49.54;93117.66;5062436;28;20033;-74
2021/07/18 18:41:15;;;;;;;12.35;6.25;;;;;;;28.48;48.60;93135.69;5060474;28;20063;-73
2021/07/18 18:43:40;;;;;;;48.15;12.80;;;;;;;28.57;49.07;93127.75;5058881;28;20647;-73
2021/07/18 18:46:05;;;;;;;18.80;8.40;;;;;;;28.49;52.34;93118.22;5066580;28;20140;-74
2021/07/18 18:48:31;;;;;;;14.18;9.02;;;;;;;28.27;54.36;93114.34;5065911;28;20048;-73
2021/07/18 18:50:59;;;;;;;17.27;8.20;;;;;;;28.25;55.04;93114.00;5058028;28;20056;-73
2021/07/18 18:53:25;;;;;;;13.15;7.90;;;;;;;28.20;55.30;93104.38;5059251;28;20035;-75
2021/07/18 18:55:51;;;;;;;21.42;8.35;;;;;;;28.06;56.54;93085.59;5059545;28;20040;-73
2021/07/18 18:58:16;;;;;;;13.70;8.18;;;;;;;27.93;56.74;93099.03;5060311;28;20044;-72
2021/07/18 19:00:41;;;;;;;17.33;8.90;;;;;;;27.96;57.12;93105.56;5063803;28;20467;-74
2021/07/18 19:03:07;;;;;;;24.08;10.15;;;;;;;27.97;57.32;93105.16;5061743;28;20135;-74
2021/07/18 19:05:32;;;;;;;19.10;8.45;;;;;;;27.73;59.21;93111.00;5066889;28;20028;-73
2021/07/18 19:07:58;;;;;;;15.00;7.97;;;;;;;27.58;59.05;93094.19;5069744;28;20039;-73
2021/07/18 19:10:23;;;;;;;15.98;9.07;;;;;;;27.32;60.70;93106.56;5065246;28;20149;-73
2021/07/18 19:12:49;;;;;;;14.85;7.93;;;;;;;26.90;62.26;93110.66;5064245;28;20047;-73
2021/07/18 19:15:14;;;;;;;11.95;8.57;;;;;;;26.82;62.22;93130.88;5065927;28;20401;-72
2021/07/18 19:17:43;;;;;;;14.30;8.13;;;;;;;26.90;62.00;93124.22;5066504;28;20067;-74
2021/07/18 19:20:09;;;;;;;14.20;8.30;;;;;;;26.86;59.72;93128.13;5068136;28;20040;-73
2021/07/18 19:22:35;;;;;;;12.10;8.65;;;;;;;26.75;62.21;93120.09;5066489;28;20040;-73
2021/07/18 19:25:00;;;;;;;13.02;8.73;;;;;;;26.77;61.77;93127.84;5068284;28;20040;-74
2021/07/18 19:27:26;;;;;;;15.48;8.70;;;;;;;26.84;61.33;93123.09;5071208;28;20047;-74
2021/07/18 19:29:52;;;;;;;9.27;8.27;;;;;;;26.67;61.26;93121.38;5068344;28;20043;-74
2021/07/18 19:32:18;;;;;;;13.60;8.98;;;;;;;26.82;59.63;93136.28;5067428;28;20048;-74
2021/07/18 19:34:43;;;;;;;17.42;8.10;;;;;;;26.80;62.26;93137.88;5065250;28;20159;-73
2021/07/18 19:37:08;;;;;;;16.95;9.48;;;;;;;26.80;62.60;93144.06;5067592;28;20040;-74
2021/07/18 19:39:34;;;;;;;11.63;9.57;;;;;;;26.93;62.25;93157.84;5069147;28;20043;-74
2021/07/18 19:41:59;;;;;;;10.40;8.98;;;;;;;27.01;61.86;93140.34;5065650;28;20027;-75
2021/07/18 19:44:25;;;;;;;11.65;8.88;;;;;;;27.11;61.42;93142.91;5051269;28;20032;-74
2021/07/18 19:46:50;;;;;;;28.27;9.05;;;;;;;27.22;61.21;93153.59;5057303;28;20816;-75
2021/07/18 19:49:16;;;;;;;16.17;9.10;;;;;;;27.25;61.04;93154.75;5057282;28;20461;-73
2021/07/18 19:51:41;;;;;;;12.27;9.02;;;;;;;27.28;60.91;93151.19;5057399;28;20139;-74
2021/07/18 19:54:07;;;;;;;10.60;8.65;;;;;;;27.34;60.48;93155.00;5061140;28;20072;-74
2021/07/18 19:56:32;;;;;;;11.82;8.30;;;;;;;27.38;60.71;93153.75;5058914;28;21906;-74
2021/07/18 19:58:58;;;;;;;14.02;8.98;;;;;;;27.45;60.31;93155.63;5056448;28;20040;-73
2021/07/18 20:01:23;;;;;;;17.73;8.68;;;;;;;27.43;59.36;93152.53;5061704;28;20466;-74
2021/07/18 20:03:49;;;;;;;10.77;9.02;;;;;;;27.42;58.88;93151.00;5062281;28;20032;-74
2021/07/18 20:06:15;;;;;;;13.70;8.90;;;;;;;27.24;59.81;93156.69;5062829;28;20036;-74
2021/07/18 20:08:41;;;;;;;11.98;8.73;;;;;;;27.23;57.32;93157.06;5058350;28;20113;-74
2021/07/18 20:11:07;;;;;;;13.20;10.48;;;;;;;27.23;57.44;93159.78;5057693;28;20053;-74
2021/07/18 20:13:33;;;;;;;12.10;8.23;;;;;;;27.40;56.86;93170.41;5062677;28;20040;-73
2021/07/18 20:15:59;;;;;;;20.77;8.95;;;;;;;27.07;57.17;93163.88;5061993;28;20079;-75
2021/07/18 20:18:25;;;;;;;13.65;10.05;;;;;;;26.77;57.37;93166.56;5058912;28;20479;-74
2021/07/18 20:20:50;;;;;;;15.60;10.30;;;;;;;26.34;59.19;93141.13;5059489;28;20121;-74
2021/07/18 20:23:16;;;;;;;13.65;10.80;;;;;;;26.56;59.29;93151.31;5064467;28;20019;-74
2021/07/18 20:25:42;;;;;;;11.68;9.10;;;;;;;26.65;59.71;93153.53;5054868;28;20664;-74
2021/07/18 20:28:07;;;;;;;13.30;10.10;;;;;;;26.91;59.01;93165.66;5060389;28;24003;-76
2021/07/18 20:30:36;;;;;;;9.48;8.55;;;;;;;26.99;59.18;93157.00;5058737;28;20040;-74
2021/07/18 20:33:03;;;;;;;13.38;9.38;;;;;;;27.06;59.76;93167.00;5060658;28;20038;-74
2021/07/18 20:35:28;;;;;;;14.85;10.98;;;;;;;27.19;58.83;93172.63;5062490;28;20024;-75
2021/07/18 20:37:54;;;;;;;13.48;9.70;;;;;;;27.22;59.15;93163.69;5064213;28;20547;-75
2021/07/18 20:40:19;;;;;;;17.10;9.82;;;;;;;27.31;58.35;93172.88;5062912;28;20037;-74
2021/07/18 20:42:45;;;;;;;13.18;10.25;;;;;;;27.29;58.54;93174.44;5066618;28;20040;-74
2021/07/18 20:45:12;;;;;;;12.82;9.90;;;;;;;27.31;58.94;93172.88;5053837;28;20044;-74
2021/07/18 20:47:37;;;;;;;12.90;9.23;;;;;;;27.41;57.80;93171.94;5063967;28;20183;-74
2021/07/18 20:50:05;;;;;;;10.90;8.82;;;;;;;27.17;57.57;93132.38;5060430;28;20040;-73
2021/07/18 20:52:30;;;;;;;15.48;8.82;;;;;;;27.42;57.38;93172.69;5062010;28;20036;-73
2021/07/18 20:54:56;;;;;;;12.07;9.10;;;;;;;27.45;57.47;93171.91;5060875;28;20033;-74
2021/07/18 20:57:22;;;;;;;10.13;8.43;;;;;;;27.49;56.85;93178.06;5058407;28;20794;-74
2021/07/18 20:59:47;;;;;;;12.68;9.77;;;;;;;27.53;56.99;93167.91;5059539;28;20031;-75
2021/07/18 21:02:12;;;;;;;14.75;10.93;;;;;;;27.46;56.72;93157.94;5060645;28;20028;-74
2021/07/18 21:04:38;;;;;;;10.88;8.63;;;;;;;27.54;56.75;93161.31;5058735;28;20033;-75
2021/07/18 21:07:03;;;;;;;8.70;7.80;;;;;;;26.91;58.50;93133.13;5062146;28;20592;-74
2021/07/18 21:09:29;;;;;;;12.15;9.77;;;;;;;27.04;58.21;93153.84;5059240;28;20040;-75
2021/07/18 21:11:59;;;;;;;13.43;9.65;;;;;;;26.89;58.98;93154.44;5062687;28;20613;-73
2021/07/18 21:14:24;;;;;;;10.63;9.20;;;;;;;27.25;58.00;93168.31;5061995;28;20043;-74
2021/07/18 21:16:50;;;;;;;17.13;9.70;;;;;;;27.13;57.31;93164.19;5059370;28;20040;-74
2021/07/18 21:19:15;;;;;;;19.88;10.85;;;;;;;27.34;56.45;93165.84;5062066;28;20048;-74
2021/07/18 21:21:40;;;;;;;14.30;10.77;;;;;;;27.68;57.54;93182.81;5060518;28;20525;-74
2021/07/18 21:24:06;;;;;;;11.35;8.50;;;;;;;27.71;56.13;93176.56;5060845;28;20036;-74
2021/07/18 21:26:31;;;;;;;11.23;8.82;;;;;;;27.76;54.73;93169.91;5060904;28;20035;-74
2021/07/18 21:28:57;;;;;;;9.88;8.75;;;;;;;27.81;54.67;93170.19;5060765;28;20040;-74
2021/07/18 21:31:22;;;;;;;12.52;9.73;;;;;;;27.89;55.71;93179.78;5059514;28;20366;-75
2021/07/18 21:33:50;;;;;;;10.57;9.32;;;;;;;27.93;55.68;93166.91;5059190;28;20461;-74
2021/07/18 21:36:16;;;;;;;12.90;9.73;;;;;;;27.98;56.00;93177.31;5061462;28;20496;-74
2021/07/18 21:38:41;;;;;;;11.25;10.23;;;;;;;28.05;55.68;93181.09;5059141;28;20036;-74
2021/07/18 21:41:07;;;;;;;13.90;10.02;;;;;;;27.93;55.17;93164.19;5062777;28;20119;-75
2021/07/18 21:43:32;;;;;;;10.40;8.88;;;;;;;27.92;55.52;93173.50;5060180;28;20071;-73
2021/07/18 21:45:58;;;;;;;14.15;9.80;;;;;;;27.89;55.95;93168.16;5062257;28;20032;-74
2021/07/18 21:48:23;;;;;;;11.32;10.05;;;;;;;27.95;55.60;93167.25;5059471;28;20585;-75
2021/07/18 21:50:49;;;;;;;14.18;10.18;;;;;;;27.98;55.33;93166.44;5060196;28;20024;-74
2021/07/18 21:53:14;;;;;;;11.10;9.35;;;;;;;27.73;57.22;93178.88;5061700;28;20512;-73
2021/07/18 21:55:40;;;;;;;13.15;10.13;;;;;;;27.70;56.69;93175.03;5061399;28;20044;-74
2021/07/18 21:58:05;;;;;;;11.90;10.68;;;;;;;27.71;57.08;93179.28;5057858;28;20608;-75
2021/07/18 22:00:33;;;;;;;11.10;9.85;;;;;;;27.57;57.81;93185.69;5059018;28;20047;-74
2021/07/18 22:02:59;;;;;;;12.02;10.20;;;;;;;27.45;58.26;93182.75;5059448;28;20029;-74
2021/07/18 22:05:25;;;;;;;14.13;10.73;;;;;;;27.55;57.93;93187.28;5058914;28;20502;-74
2021/07/18 22:07:51;;;;;;;12.80;10.18;;;;;;;27.59;57.92;93179.84;5059938;28;20037;-74
2021/07/18 22:10:26;;;;;;;11.48;10.27;;;;;;;27.61;57.70;93174.03;5059724;28;20082;-73
2021/07/18 22:12:57;;;;;;;11.35;9.63;;;;;;;27.70;58.15;93177.75;5061512;28;20525;-74
2021/07/18 22:15:26;;;;;;;14.20;10.50;;;;;;;27.77;57.21;93180.34;5063026;28;20047;-74
2021/07/18 22:17:52;;;;;;;13.50;9.90;;;;;;;27.78;57.58;93192.75;5059352;28;20540;-73
2021/07/18 22:20:18;;;;;;;11.40;10.18;;;;;;;27.75;57.62;93180.00;5059053;28;20474;-75
2021/07/18 22:22:44;;;;;;;10.45;9.35;;;;;;;27.83;57.36;93186.09;5061048;28;20036;-74
2021/07/18 22:25:11;;;;;;;11.60;10.40;;;;;;;27.70;56.95;93172.31;5061133;28;20071;-75
2021/07/18 22:27:37;;;;;;;15.10;12.05;;;;;;;27.86;56.48;93188.72;5061646;28;20213;-74
2021/07/18 22:30:09;;;;;;;11.75;9.18;;;;;;;27.72;55.79;93191.66;5060809;28;20123;-75
2021/07/18 22:32:35;;;;;;;15.45;9.75;;;;;;;27.70;55.57;93188.63;5056668;28;20027;-74
2021/07/18 22:35:01;;;;;;;10.60;9.43;;;;;;;27.66;55.10;93171.59;5063189;28;20036;-74
2021/07/18 22:37:27;;;;;;;10.73;8.48;;;;;;;27.82;54.47;93185.31;5062489;28;20363;-75
2021/07/18 22:39:53;;;;;;;10.40;8.57;;;;;;;27.82;55.12;93179.88;5066342;28;20033;-75
2021/07/18 22:42:19;;;;;;;10.23;7.97;;;;;;;27.94;54.97;93182.03;5064818;28;20425;-74
2021/07/18 22:44:45;;;;;;;10.77;8.80;;;;;;;27.91;55.31;93171.97;5063810;28;20051;-73
2021/07/18 22:47:12;;;;;;;8.98;7.90;;;;;;;27.74;55.27;93159.47;5058821;28;20032;-75
2021/07/18 22:49:38;;;;;;;14.50;9.13;;;;;;;27.91;54.82;93171.97;5067606;28;20559;-74
2021/07/18 22:52:03;;;;;;;10.50;8.50;;;;;;;27.77;54.76;93155.91;5062610;28;20040;-74
2021/07/18 22:54:29;;;;;;;10.15;7.72;;;;;;;27.72;53.77;93164.53;5065258;28;20048;-74
2021/07/18 22:56:57;;;;;;;12.43;8.48;;;;;;;27.52;53.58;93166.38;5059925;28;21413;-75
2021/07/18 22:59:22;;;;;;;9.43;8.57;;;;;;;27.62;54.71;93148.41;5067582;28;20048;-75
2021/07/18 23:01:47;;;;;;;9.05;8.15;;;;;;;27.63;55.34;93153.44;5065911;28;20079;-75
2021/07/18 23:04:13;;;;;;;11.15;8.65;;;;;;;27.47;53.93;93154.00;5063568;28;20037;-75
2021/07/18 23:06:38;;;;;;;12.13;8.55;;;;;;;27.52;54.10;93152.81;5060472;28;20399;-74
2021/07/18 23:09:04;;;;;;;9.18;8.25;;;;;;;27.63;54.72;93149.94;5065138;28;20151;-74
2021/07/18 23:11:29;;;;;;;14.65;8.98;;;;;;;27.44;54.33;93138.56;5062967;28;20096;-74
2021/07/18 23:13:54;;;;;;;11.80;8.90;;;;;;;27.54;53.97;93137.66;5062915;28;20043;-74
2021/07/18 23:16:22;;;;;;;9.43;7.93;;;;;;;27.57;53.63;93141.50;5065760;28;20040;-74
2021/07/18 23:18:47;;;;;;;16.83;8.90;;;;;;;27.28;53.87;93096.94;5071453;28;20086;-74
2021/07/18 23:21:13;;;;;;;11.55;8.35;;;;;;;27.52;53.85;93126.44;5059419;28;20072;-74
2021/07/18 23:23:40;;;;;;;10.88;8.63;;;;;;;27.51;53.57;93132.31;5065320;28;20028;-74
2021/07/18 23:26:05;;;;;;;11.18;8.60;;;;;;;27.58;54.10;93132.94;5062321;28;20036;-74
2021/07/18 23:28:30;;;;;;;12.85;8.73;;;;;;;27.61;53.97;93136.81;5064215;28;20051;-74
2021/07/18 23:30:56;;;;;;;11.35;8.50;;;;;;;27.61;54.32;93147.66;5065314;28;20039;-74
2021/07/18 23:33:21;;;;;;;10.48;8.55;;;;;;;27.52;54.91;93128.38;5063989;28;20616;-74
2021/07/18 23:35:47;;;;;;;9.70;8.50;;;;;;;27.51;54.79;93141.19;5062146;28;20060;-74
2021/07/18 23:38:13;;;;;;;9.50;8.23;;;;;;;27.47;55.23;93136.97;5064366;28;20082;-74
2021/07/18 23:40:38;;;;;;;12.45;8.20;;;;;;;27.32;55.50;93132.94;5061862;28;20055;-74
2021/07/18 23:43:04;;;;;;;11.35;8.98;;;;;;;27.28;55.02;93126.78;5066175;28;20044;-74
2021/07/18 23:45:29;;;;;;;12.25;10.70;;;;;;;27.31;55.50;93144.97;5054826;28;20098;-74